Time;durP1;ratioP1;P1;durP2;ratioP2;P2;SDS_P1;SDS_P2;PMS_P1;PMS_P2;Temp;Humidity;BMP_temperature;BMP_pressure;BME280_temperature;BME280_humidity;BME280_pressure;Samples;Min_cycle;Max_cycle;Signal;HPM_P1;HPM_P2
2022/10/20 00:01:25;;;;;;;10.35;9.60;;;;;;;;;;4992911;28;20038;-64
2022/10/20 00:03:51;;;;;;;10.68;9.98;;;;;;;;;;4991561;28;20050;-64
2022/10/20 00:06:28;;;;;;;10.55;9.82;;;;;;;;;;4993388;28;20030;-64
2022/10/20 00:08:55;;;;;;;10.20;9.50;;;;;;;;;;4993987;28;20049;-64
2022/10/20 00:11:22;;;;;;;10.38;9.68;;;;;;;;;;4997945;28;20091;-64
2022/10/20 00:13:50;;;;;;;11.32;10.60;;;;;;;;;;4997529;28;20030;-64
2022/10/20 00:16:16;;;;;;;10.63;9.93;;;;;;;;;;4994713;28;20030;-63
2022/10/20 00:18:41;;;;;;;11.27;10.48;;;;;;;;;;4993994;28;20041;-63
2022/10/20 00:21:11;;;;;;;11.32;10.45;;;;;;;;;;4995180;28;20551;-64
2022/10/20 00:23:36;;;;;;;10.73;10.02;;;;;;;;;;4990750;28;20817;-64
2022/10/20 00:26:03;;;;;;;9.65;9.05;;;;;;;;;;4994271;28;20036;-64
2022/10/20 00:28:28;;;;;;;10.65;9.93;;;;;;;;;;4996317;28;20032;-64
2022/10/20 00:30:55;;;;;;;10.43;9.82;;;;;;;;;;4995946;28;20018;-64
2022/10/20 00:33:21;;;;;;;11.05;10.15;;;;;;;;;;4993865;28;20040;-64
2022/10/20 00:35:46;;;;;;;10.25;9.55;;;;;;;;;;4994340;28;20033;-64
2022/10/20 00:38:11;;;;;;;12.48;11.65;;;;;;;;;;4994014;28;20030;-64
2022/10/20 00:40:37;;;;;;;10.00;9.38;;;;;;;;;;4994108;28;20499;-64
2022/10/20 00:43:02;;;;;;;12.02;10.98;;;;;;;;;;4993716;28;20468;-64
2022/10/20 00:45:28;;;;;;;10.63;9.85;;;;;;;;;;4994676;28;20229;-64
2022/10/20 00:48:03;;;;;;;10.80;10.10;;;;;;;;;;4989736;28;20037;-64
2022/10/20 00:50:33;;;;;;;12.10;11.07;;;;;;;;;;4993879;28;20034;-64
2022/10/20 00:53:00;;;;;;;10.65;9.95;;;;;;;;;;4994012;28;20042;-64
2022/10/20 00:55:30;;;;;;;11.05;10.35;;;;;;;;;;4990180;28;20030;-64
2022/10/20 00:57:57;;;;;;;10.38;9.68;;;;;;;;;;4994888;28;20724;-64
2022/10/20 01:00:24;;;;;;;10.75;10.05;;;;;;;;;;5027287;28;20072;-64
2022/10/20 01:02:55;;;;;;;10.85;10.15;;;;;;;;;;4997809;28;20091;-64
2022/10/20 01:05:21;;;;;;;10.68;9.98;;;;;;;;;;5002919;28;20030;-64
2022/10/20 01:07:46;;;;;;;9.80;9.20;;;;;;;;;;5001337;28;20344;-64
2022/10/20 01:10:13;;;;;;;10.18;9.57;;;;;;;;;;5000825;28;20448;-64
2022/10/20 01:12:53;;;;;;;10.82;10.13;;;;;;;;;;5000961;28;20031;-64
2022/10/20 01:15:25;;;;;;;10.30;9.60;;;;;;;;;;5003240;28;20042;-64
2022/10/20 01:18:07;;;;;;;9.98;9.38;;;;;;;;;;4999717;28;20030;-64
2022/10/20 01:21:09;;;;;;;11.68;10.82;;;;;;;;;;5002571;28;20524;-64
2022/10/20 01:23:53;;;;;;;11.15;10.45;;;;;;;;;;4999876;28;20072;-64
2022/10/20 01:26:49;;;;;;;10.63;9.93;;;;;;;;;;4999140;28;20030;-64
2022/10/20 01:29:38;;;;;;;9.95;9.35;;;;;;;;;;4996811;28;20034;-65
2022/10/20 01:32:16;;;;;;;10.20;9.60;;;;;;;;;;4997384;28;20026;-63
2022/10/20 01:35:06;;;;;;;10.15;9.45;;;;;;;;;;5002732;28;20565;-63
2022/10/20 01:38:10;;;;;;;17.48;11.27;;;;;;;;;;4971631;28;20096;-63
2022/10/20 01:40:42;;;;;;;10.88;10.18;;;;;;;;;;5004362;28;20041;-64
2022/10/20 01:43:11;;;;;;;11.02;10.32;;;;;;;;;;5004656;28;20282;-64
2022/10/20 01:45:40;;;;;;;9.82;9.18;;;;;;;;;;4996880;28;20117;-64
2022/10/20 01:48:08;;;;;;;10.90;10.05;;;;;;;;;;5000734;28;20040;-64
2022/10/20 01:50:35;;;;;;;9.95;9.35;;;;;;;;;;5013726;28;20452;-63
2022/10/20 01:53:01;;;;;;;10.23;9.57;;;;;;;;;;4997801;28;20416;-64
2022/10/20 01:55:27;;;;;;;10.43;9.73;;;;;;;;;;4998352;28;20021;-63
2022/10/20 01:57:58;;;;;;;10.32;9.73;;;;;;;;;;4996783;28;20038;-64
2022/10/20 02:00:24;;;;;;;10.88;10.15;;;;;;;;;;4996354;28;20518;-63
2022/10/20 02:02:55;;;;;;;11.25;10.25;;;;;;;;;;4997481;28;20031;-64
2022/10/20 02:05:38;;;;;;;9.15;8.55;;;;;;;;;;4995783;28;20031;-64
2022/10/20 02:08:28;;;;;;;9.85;9.23;;;;;;;;;;4997921;28;20108;-64
2022/10/20 02:10:57;;;;;;;9.85;9.25;;;;;;;;;;4996277;28;20034;-64
2022/10/20 02:13:25;;;;;;;9.38;8.77;;;;;;;;;;4994275;28;20038;-64
2022/10/20 02:15:53;;;;;;;9.60;8.93;;;;;;;;;;4997943;28;20129;-64
2022/10/20 02:18:26;;;;;;;9.38;8.77;;;;;;;;;;4995442;28;20034;-64
2022/10/20 02:20:55;;;;;;;9.10;8.50;;;;;;;;;;4994902;28;20415;-64
2022/10/20 02:23:20;;;;;;;9.80;9.07;;;;;;;;;;4995980;28;20476;-64
2022/10/20 02:25:50;;;;;;;8.73;8.13;;;;;;;;;;5002800;28;20061;-64
2022/10/20 02:28:16;;;;;;;9.40;8.70;;;;;;;;;;4997250;28;20038;-64
2022/10/20 02:30:43;;;;;;;8.98;8.38;;;;;;;;;;4999289;28;20014;-66
2022/10/20 02:33:09;;;;;;;8.50;7.90;;;;;;;;;;4998836;28;20049;-66
2022/10/20 02:35:34;;;;;;;9.95;9.25;;;;;;;;;;4997794;28;20057;-66
2022/10/20 02:38:00;;;;;;;11.20;10.20;;;;;;;;;;4997377;28;20066;-66
2022/10/20 02:40:26;;;;;;;9.52;8.73;;;;;;;;;;4995392;28;20391;-67
2022/10/20 02:42:52;;;;;;;9.10;8.50;;;;;;;;;;4996056;28;20037;-66
2022/10/20 02:45:17;;;;;;;9.05;8.45;;;;;;;;;;5027101;28;20030;-66
2022/10/20 02:47:43;;;;;;;12.93;9.18;;;;;;;;;;4995211;28;20030;-66
2022/10/20 02:50:09;;;;;;;9.32;8.73;;;;;;;;;;4995047;28;20026;-66
2022/10/20 02:52:35;;;;;;;8.82;8.23;;;;;;;;;;4994055;28;104776;-66
2022/10/20 02:55:01;;;;;;;9.57;8.98;;;;;;;;;;4995528;28;20117;-66
2022/10/20 02:57:26;;;;;;;8.50;7.97;;;;;;;;;;4995185;28;20610;-66
2022/10/20 02:59:52;;;;;;;10.45;9.65;;;;;;;;;;4997092;28;20066;-66
2022/10/20 03:02:17;;;;;;;8.55;7.95;;;;;;;;;;4997135;28;20303;-66
2022/10/20 03:04:43;;;;;;;9.07;8.48;;;;;;;;;;4995489;28;20030;-66
2022/10/20 03:07:09;;;;;;;8.68;8.07;;;;;;;;;;4998864;28;20117;-66
2022/10/20 03:09:34;;;;;;;9.05;8.45;;;;;;;;;;4996205;28;20188;-66
2022/10/20 03:12:01;;;;;;;8.85;8.25;;;;;;;;;;4994453;28;20529;-66
2022/10/20 03:14:26;;;;;;;9.40;8.80;;;;;;;;;;4995482;28;20044;-66
2022/10/20 03:16:52;;;;;;;8.93;8.32;;;;;;;;;;4996193;28;20116;-66
2022/10/20 03:19:17;;;;;;;9.80;9.10;;;;;;;;;;4994949;28;20038;-66
2022/10/20 03:21:43;;;;;;;9.68;9.07;;;;;;;;;;4993516;28;20105;-66
2022/10/20 03:24:08;;;;;;;8.43;7.82;;;;;;;;;;4994651;28;20073;-66
2022/10/20 03:26:33;;;;;;;9.48;8.77;;;;;;;;;;4996966;28;20030;-66
2022/10/20 03:28:59;;;;;;;8.98;8.27;;;;;;;;;;4992729;28;20091;-66
2022/10/20 03:31:24;;;;;;;8.82;8.23;;;;;;;;;;4994991;28;20034;-66
2022/10/20 03:33:49;;;;;;;8.02;7.53;;;;;;;;;;4995561;28;20360;-66
2022/10/20 03:36:15;;;;;;;8.80;8.00;;;;;;;;;;4998442;28;20034;-66
2022/10/20 03:38:42;;;;;;;8.02;7.53;;;;;;;;;;5002804;28;20079;-66
2022/10/20 03:41:08;;;;;;;8.43;7.85;;;;;;;;;;4992401;28;20038;-66
2022/10/20 03:43:33;;;;;;;7.93;7.43;;;;;;;;;;4996419;28;20208;-66
2022/10/20 03:46:07;;;;;;;8.23;7.63;;;;;;;;;;5010258;28;20370;-66
2022/10/20 03:48:33;;;;;;;8.60;8.00;;;;;;;;;;4993473;28;20066;-66
2022/10/20 03:50:59;;;;;;;8.45;7.85;;;;;;;;;;4994786;28;20076;-66
2022/10/20 03:53:25;;;;;;;8.90;8.30;;;;;;;;;;4996687;28;20121;-66
2022/10/20 03:55:50;;;;;;;8.55;7.93;;;;;;;;;;4992733;28;20499;-65
2022/10/20 03:58:16;;;;;;;7.97;7.43;;;;;;;;;;4995941;28;20472;-65
2022/10/20 04:00:41;;;;;;;8.27;7.68;;;;;;;;;;4993601;28;20496;-65
2022/10/20 04:03:06;;;;;;;8.57;7.97;;;;;;;;;;4995809;28;20058;-68
2022/10/20 04:05:32;;;;;;;10.75;9.68;;;;;;;;;;4995570;28;20467;-65
2022/10/20 04:07:57;;;;;;;7.80;7.18;;;;;;;;;;4992080;28;20040;-66
2022/10/20 04:10:22;;;;;;;8.50;7.80;;;;;;;;;;4999175;28;20044;-69
2022/10/20 04:12:48;;;;;;;8.15;7.63;;;;;;;;;;4991152;28;20053;-66
2022/10/20 04:15:13;;;;;;;8.02;7.43;;;;;;;;;;4992045;28;20034;-66
2022/10/20 04:17:39;;;;;;;8.45;7.85;;;;;;;;;;4994494;28;20367;-65
2022/10/20 04:20:05;;;;;;;9.63;8.93;;;;;;;;;;4993921;28;20050;-64
2022/10/20 04:22:31;;;;;;;9.32;8.57;;;;;;;;;;4995597;28;20046;-67
2022/10/20 04:24:56;;;;;;;7.72;7.22;;;;;;;;;;4996580;28;20064;-66
2022/10/20 04:27:22;;;;;;;9.05;8.45;;;;;;;;;;4995887;28;20029;-67
2022/10/20 04:29:47;;;;;;;8.38;7.78;;;;;;;;;;4991156;28;20096;-67
2022/10/20 04:32:13;;;;;;;7.18;6.68;;;;;;;;;;4996541;28;20183;-66
2022/10/20 04:34:38;;;;;;;8.68;8.07;;;;;;;;;;4995498;28;20471;-66
2022/10/20 04:37:04;;;;;;;7.82;7.32;;;;;;;;;;4996985;28;20030;-66
2022/10/20 04:39:29;;;;;;;8.52;7.60;;;;;;;;;;4994063;28;20045;-67
2022/10/20 04:41:54;;;;;;;8.60;8.00;;;;;;;;;;4994342;28;20088;-65
2022/10/20 04:44:20;;;;;;;8.48;7.88;;;;;;;;;;4994162;28;20030;-65
2022/10/20 04:46:45;;;;;;;8.55;7.95;;;;;;;;;;4995585;28;20034;-64
2022/10/20 04:49:11;;;;;;;8.05;7.50;;;;;;;;;;4993434;28;20031;-65
2022/10/20 04:51:36;;;;;;;8.90;8.30;;;;;;;;;;4996147;28;20032;-65
2022/10/20 04:54:02;;;;;;;7.57;7.07;;;;;;;;;;4991602;28;20045;-64
2022/10/20 04:56:27;;;;;;;8.27;7.65;;;;;;;;;;4997982;28;20547;-64
2022/10/20 04:58:55;;;;;;;8.20;7.55;;;;;;;;;;4995619;28;20121;-64
2022/10/20 05:01:24;;;;;;;8.25;7.70;;;;;;;;;;4994359;28;20030;-63
2022/10/20 05:03:49;;;;;;;8.50;7.90;;;;;;;;;;4995147;28;20037;-63
2022/10/20 05:06:17;;;;;;;9.25;8.45;;;;;;;;;;4994634;28;20037;-63
2022/10/20 05:08:47;;;;;;;8.40;7.80;;;;;;;;;;4994595;28;20034;-63
2022/10/20 05:11:15;;;;;;;8.18;7.57;;;;;;;;;;4997001;28;20033;-63
2022/10/20 05:13:41;;;;;;;8.32;7.75;;;;;;;;;;4997493;28;20022;-63
2022/10/20 05:16:07;;;;;;;8.43;7.85;;;;;;;;;;4993285;28;20447;-64
2022/10/20 05:18:33;;;;;;;8.60;7.90;;;;;;;;;;4997376;28;20034;-64
2022/10/20 05:21:03;;;;;;;8.32;7.63;;;;;;;;;;4992232;28;20052;-64
2022/10/20 05:23:28;;;;;;;8.15;7.55;;;;;;;;;;4993952;28;20038;-66
2022/10/20 05:25:53;;;;;;;7.57;7.07;;;;;;;;;;4995181;28;20099;-66
2022/10/20 05:28:19;;;;;;;7.53;7.03;;;;;;;;;;4998111;28;20138;-64
2022/10/20 05:30:44;;;;;;;8.23;7.70;;;;;;;;;;5025081;28;20121;-64
2022/10/20 05:33:10;;;;;;;7.88;7.38;;;;;;;;;;4994679;28;20029;-65
2022/10/20 05:35:35;;;;;;;9.23;8.43;;;;;;;;;;4997068;28;20576;-67
2022/10/20 05:38:00;;;;;;;8.18;7.63;;;;;;;;;;4994070;28;20042;-65
2022/10/20 05:40:26;;;;;;;8.77;8.18;;;;;;;;;;4996948;28;20041;-65
2022/10/20 05:42:51;;;;;;;8.35;7.75;;;;;;;;;;4994002;28;20034;-65
2022/10/20 05:45:16;;;;;;;8.13;7.50;;;;;;;;;;4997041;28;20031;-65
2022/10/20 05:47:42;;;;;;;8.57;7.93;;;;;;;;;;4997488;28;20030;-65
2022/10/20 05:50:08;;;;;;;8.65;7.95;;;;;;;;;;4997497;28;20224;-65
2022/10/20 05:52:34;;;;;;;11.23;7.70;;;;;;;;;;5014566;28;20026;-65
2022/10/20 05:55:00;;;;;;;7.43;6.93;;;;;;;;;;4996819;28;20037;-65
2022/10/20 05:57:25;;;;;;;8.55;7.85;;;;;;;;;;4996139;28;20131;-65
2022/10/20 05:59:50;;;;;;;8.07;7.38;;;;;;;;;;4998059;28;20046;-65
2022/10/20 06:02:16;;;;;;;8.45;7.85;;;;;;;;;;4998929;28;20038;-65
2022/10/20 06:04:41;;;;;;;11.55;10.40;;;;;;;;;;4998756;28;20019;-65
2022/10/20 06:07:08;;;;;;;7.85;7.30;;;;;;;;;;4995295;28;20054;-65
2022/10/20 06:09:35;;;;;;;7.32;6.82;;;;;;;;;;4997153;28;20612;-65
2022/10/20 06:12:00;;;;;;;7.50;7.00;;;;;;;;;;4997864;28;20105;-65
2022/10/20 06:14:26;;;;;;;9.05;8.35;;;;;;;;;;4997565;28;20053;-65
2022/10/20 06:16:52;;;;;;;8.43;7.75;;;;;;;;;;4997026;28;20483;-65
2022/10/20 06:19:18;;;;;;;8.38;7.68;;;;;;;;;;4997902;28;20034;-66
2022/10/20 06:21:43;;;;;;;8.55;7.78;;;;;;;;;;4997612;28;20040;-65
2022/10/20 06:24:10;;;;;;;8.32;7.63;;;;;;;;;;4997369;28;20457;-65
2022/10/20 06:26:37;;;;;;;8.02;7.43;;;;;;;;;;4997708;28;20037;-65
2022/10/20 06:29:05;;;;;;;8.43;7.80;;;;;;;;;;4996342;28;20033;-65
2022/10/20 06:31:39;;;;;;;8.57;7.97;;;;;;;;;;5027350;28;20026;-66
2022/10/20 06:34:09;;;;;;;8.38;7.78;;;;;;;;;;4995125;28;20285;-65
2022/10/20 06:36:36;;;;;;;9.48;8.77;;;;;;;;;;4995617;28;20045;-66
2022/10/20 06:39:03;;;;;;;9.30;8.50;;;;;;;;;;4994789;28;20034;-66
2022/10/20 06:41:29;;;;;;;9.95;9.25;;;;;;;;;;4996427;28;20054;-66
2022/10/20 06:43:57;;;;;;;10.77;9.88;;;;;;;;;;4993158;28;20069;-66
2022/10/20 06:46:31;;;;;;;11.40;10.50;;;;;;;;;;4995601;28;20066;-66
2022/10/20 06:49:02;;;;;;;10.65;9.85;;;;;;;;;;4997171;28;20026;-65
2022/10/20 06:51:28;;;;;;;10.23;9.52;;;;;;;;;;4996463;28;20022;-66
2022/10/20 06:53:53;;;;;;;10.50;9.80;;;;;;;;;;4994115;28;20161;-65
2022/10/20 06:56:24;;;;;;;11.48;10.32;;;;;;;;;;4995834;28;20050;-66
2022/10/20 06:58:52;;;;;;;11.13;10.38;;;;;;;;;;4996751;28;20022;-66
2022/10/20 07:01:19;;;;;;;11.82;10.93;;;;;;;;;;4995377;28;20162;-65
2022/10/20 07:03:46;;;;;;;12.23;11.20;;;;;;;;;;4993494;28;20546;-65
2022/10/20 07:06:32;;;;;;;13.27;11.77;;;;;;;;;;4996262;28;20050;-65
2022/10/20 07:08:58;;;;;;;13.90;12.93;;;;;;;;;;4998207;28;20431;-65
2022/10/20 07:11:28;;;;;;;11.45;10.75;;;;;;;;;;4996822;28;20042;-66
2022/10/20 07:13:54;;;;;;;12.70;11.80;;;;;;;;;;4997177;28;20105;-65
2022/10/20 07:16:22;;;;;;;13.75;12.75;;;;;;;;;;4994320;28;20343;-66
2022/10/20 07:18:48;;;;;;;13.35;12.45;;;;;;;;;;4994364;28;20033;-66
2022/10/20 07:21:16;;;;;;;15.05;13.95;;;;;;;;;;4994678;28;20040;-66
2022/10/20 07:23:42;;;;;;;14.05;13.05;;;;;;;;;;4998092;28;20029;-68
2022/10/20 07:26:17;;;;;;;14.52;13.52;;;;;;;;;;5000804;28;20936;-65
2022/10/20 07:28:45;;;;;;;14.27;13.30;;;;;;;;;;4999020;28;20034;-66
2022/10/20 07:31:16;;;;;;;13.15;12.25;;;;;;;;;;4996526;28;20034;-65
2022/10/20 07:33:42;;;;;;;14.82;13.82;;;;;;;;;;4996396;28;20014;-67
2022/10/20 07:36:19;;;;;;;13.00;12.18;;;;;;;;;;4997985;28;20145;-67
2022/10/20 07:38:46;;;;;;;13.55;12.68;;;;;;;;;;4997751;28;20045;-66
2022/10/20 07:41:12;;;;;;;12.63;11.75;;;;;;;;;;5000041;28;20030;-66
2022/10/20 07:43:38;;;;;;;14.60;13.57;;;;;;;;;;4993457;28;20604;-66
2022/10/20 07:46:04;;;;;;;14.32;13.32;;;;;;;;;;4992086;28;20684;-65
2022/10/20 07:48:30;;;;;;;14.52;13.32;;;;;;;;;;4992205;28;20169;-65
2022/10/20 07:51:20;;;;;;;14.82;13.82;;;;;;;;;;4994914;28;20117;-66
2022/10/20 07:53:46;;;;;;;13.82;12.85;;;;;;;;;;4996342;28;20033;-66
2022/10/20 07:56:12;;;;;;;13.02;12.23;;;;;;;;;;5000591;28;20064;-66
2022/10/20 07:58:37;;;;;;;13.40;12.45;;;;;;;;;;4994456;28;20034;-65
2022/10/20 08:01:04;;;;;;;14.55;13.32;;;;;;;;;;4995807;28;20050;-66
2022/10/20 08:03:29;;;;;;;12.27;11.48;;;;;;;;;;4997649;28;20050;-66
2022/10/20 08:05:55;;;;;;;12.50;11.55;;;;;;;;;;4995239;28;20556;-65
2022/10/20 08:08:20;;;;;;;10.75;9.95;;;;;;;;;;4995488;28;20026;-65
2022/10/20 08:10:46;;;;;;;11.68;10.70;;;;;;;;;;4995959;28;20109;-65
2022/10/20 08:13:11;;;;;;;10.20;9.45;;;;;;;;;;4995328;28;20466;-65
2022/10/20 08:15:36;;;;;;;11.82;11.02;;;;;;;;;;4995467;28;20041;-65
2022/10/20 08:18:03;;;;;;;10.35;9.55;;;;;;;;;;4996081;28;20050;-64
2022/10/20 08:20:28;;;;;;;10.90;9.80;;;;;;;;;;4994484;28;20072;-65
2022/10/20 08:22:54;;;;;;;10.55;9.77;;;;;;;;;;4994742;28;20120;-65
2022/10/20 08:25:19;;;;;;;10.73;9.93;;;;;;;;;;4998155;28;20069;-65
2022/10/20 08:27:44;;;;;;;9.93;9.20;;;;;;;;;;5003432;28;20460;-65
2022/10/20 08:30:10;;;;;;;9.10;8.50;;;;;;;;;;4997325;28;20049;-65
2022/10/20 08:32:35;;;;;;;10.27;9.43;;;;;;;;;;4995993;28;20049;-64
2022/10/20 08:35:01;;;;;;;10.10;9.18;;;;;;;;;;4995363;28;20152;-67
2022/10/20 08:37:29;;;;;;;9.52;8.82;;;;;;;;;;5009915;28;20124;-65
2022/10/20 08:39:55;;;;;;;8.55;7.95;;;;;;;;;;4993288;28;20045;-65
2022/10/20 08:42:21;;;;;;;8.40;7.80;;;;;;;;;;4990875;28;20034;-65
2022/10/20 08:44:47;;;;;;;9.60;8.63;;;;;;;;;;4994403;28;20427;-65
2022/10/20 08:47:30;;;;;;;11.30;10.32;;;;;;;;;;4992591;28;20034;-65
2022/10/20 08:49:56;;;;;;;9.23;8.45;;;;;;;;;;4991208;28;20432;-66
2022/10/20 08:52:24;;;;;;;9.80;8.90;;;;;;;;;;4994072;28;20073;-64
2022/10/20 08:54:53;;;;;;;9.82;9.10;;;;;;;;;;4996141;28;20402;-65
2022/10/20 08:57:24;;;;;;;9.85;9.15;;;;;;;;;;4996040;28;20419;-66
2022/10/20 08:59:52;;;;;;;10.55;9.63;;;;;;;;;;4992294;28;20457;-65
2022/10/20 09:02:18;;;;;;;9.38;8.68;;;;;;;;;;4992491;28;20346;-66
2022/10/20 09:04:51;;;;;;;9.80;9.10;;;;;;;;;;4995791;28;20026;-67
2022/10/20 09:07:28;;;;;;;10.23;9.07;;;;;;;;;;4996340;28;20642;-65
2022/10/20 09:10:03;;;;;;;10.52;9.75;;;;;;;;;;4992569;28;20049;-66
2022/10/20 09:12:31;;;;;;;8.80;7.95;;;;;;;;;;4991491;28;20030;-66
2022/10/20 09:14:56;;;;;;;9.82;9.02;;;;;;;;;;4992925;28;20026;-66
2022/10/20 09:17:22;;;;;;;10.13;9.32;;;;;;;;;;4994500;28;20044;-64
2022/10/20 09:19:53;;;;;;;10.88;10.10;;;;;;;;;;4995268;28;20038;-66
2022/10/20 09:22:21;;;;;;;11.20;10.40;;;;;;;;;;4998870;28;20044;-67
2022/10/20 09:24:48;;;;;;;10.98;10.18;;;;;;;;;;5000916;28;20038;-65
2022/10/20 09:27:20;;;;;;;13.32;12.23;;;;;;;;;;4998726;28;20033;-64
2022/10/20 09:29:46;;;;;;;13.52;12.40;;;;;;;;;;4997691;28;20029;-64
2022/10/20 09:32:34;;;;;;;12.65;11.55;;;;;;;;;;4996015;28;20380;-65
2022/10/20 09:35:27;;;;;;;11.48;10.45;;;;;;;;;;4999969;28;20036;-65
2022/10/20 09:38:00;;;;;;;11.93;11.00;;;;;;;;;;4995451;28;20045;-65
2022/10/20 09:40:26;;;;;;;12.23;11.43;;;;;;;;;;5000000;28;20125;-65
2022/10/20 09:42:58;;;;;;;14.23;13.32;;;;;;;;;;4997562;28;20022;-66
2022/10/20 09:45:27;;;;;;;16.42;15.32;;;;;;;;;;4998593;28;20044;-66
2022/10/20 09:48:16;;;;;;;16.95;15.85;;;;;;;;;;5000337;28;20115;-66
2022/10/20 09:50:46;;;;;;;16.88;15.55;;;;;;;;;;4998651;28;20029;-65
2022/10/20 09:53:21;;;;;;;16.77;15.63;;;;;;;;;;4996992;28;20085;-68
2022/10/20 09:55:49;;;;;;;15.65;14.65;;;;;;;;;;4996017;28;20653;-67
2022/10/20 09:58:20;;;;;;;15.55;14.55;;;;;;;;;;4994145;28;20524;-67
2022/10/20 10:01:04;;;;;;;17.67;16.20;;;;;;;;;;4996721;28;20137;-67
2022/10/20 10:03:40;;;;;;;16.48;15.25;;;;;;;;;;4997344;28;20045;-67
2022/10/20 10:06:41;;;;;;;17.05;15.75;;;;;;;;;;4998240;28;20036;-68
2022/10/20 10:09:31;;;;;;;17.13;15.80;;;;;;;;;;4968282;28;20049;-67
2022/10/20 10:12:14;;;;;;;14.50;13.45;;;;;;;;;;4996173;28;20105;-67
2022/10/20 10:14:53;;;;;;;17.30;15.85;;;;;;;;;;4998117;28;20037;-66
2022/10/20 10:17:31;;;;;;;13.80;12.90;;;;;;;;;;4998813;28;20057;-66
2022/10/20 10:19:56;;;;;;;13.60;12.75;;;;;;;;;;4994181;28;20038;-67
2022/10/20 10:22:22;;;;;;;13.80;12.80;;;;;;;;;;4997820;28;20391;-68
2022/10/20 10:24:48;;;;;;;13.00;12.10;;;;;;;;;;4996946;28;20404;-67
2022/10/20 10:27:20;;;;;;;10.57;9.88;;;;;;;;;;5009114;28;20030;-66
2022/10/20 10:29:46;;;;;;;13.40;10.57;;;;;;;;;;5029908;28;20096;-69
2022/10/20 10:32:16;;;;;;;10.27;9.48;;;;;;;;;;4998938;28;20038;-66
2022/10/20 10:34:57;;;;;;;10.98;10.07;;;;;;;;;;5029353;28;20048;-66
2022/10/20 10:37:22;;;;;;;9.55;8.85;;;;;;;;;;4996773;28;20022;-66
2022/10/20 10:39:48;;;;;;;10.05;9.27;;;;;;;;;;4997912;28;20444;-68
2022/10/20 10:42:32;;;;;;;9.95;9.25;;;;;;;;;;4996360;28;20033;-67
2022/10/20 10:45:07;;;;;;;11.52;10.63;;;;;;;;;;4999710;28;20029;-69
2022/10/20 10:47:38;;;;;;;11.98;10.98;;;;;;;;;;4997020;28;20045;-67
2022/10/20 10:50:28;;;;;;;10.88;9.98;;;;;;;;;;4994572;28;20042;-67
2022/10/20 10:53:29;;;;;;;9.75;8.95;;;;;;;;;;4993652;28;20491;-67
2022/10/20 10:56:33;;;;;;;9.15;8.35;;;;;;;;;;4964110;28;20137;-68
2022/10/20 10:59:05;;;;;;;10.10;9.40;;;;;;;;;;4886100;29;20048;-66
2022/10/20 11:01:55;;;;;;;10.25;9.00;;;;;;;;;;4982695;28;20042;-67
2022/10/20 11:04:36;;;;;;;9.50;8.80;;;;;;;;;;5014578;28;20042;-68
2022/10/20 11:07:13;;;;;;;10.60;9.68;;;;;;;;;;4996624;28;20030;-67
2022/10/20 11:09:54;;;;;;;11.05;10.13;;;;;;;;;;4998496;28;20050;-66
2022/10/20 11:12:30;;;;;;;10.85;9.88;;;;;;;;;;4997996;28;20095;-68
2022/10/20 11:15:14;;;;;;;12.18;11.32;;;;;;;;;;4997473;28;20407;-67
2022/10/20 11:17:53;;;;;;;10.68;9.88;;;;;;;;;;4997408;28;20149;-67
2022/10/20 11:20:37;;;;;;;10.57;9.77;;;;;;;;;;4997072;28;20368;-67
2022/10/20 11:23:21;;;;;;;11.68;10.73;;;;;;;;;;5008505;28;20381;-67
2022/10/20 11:26:09;;;;;;;9.57;8.93;;;;;;;;;;4994849;28;20042;-67
2022/10/20 11:28:44;;;;;;;10.90;10.02;;;;;;;;;;4998883;28;20038;-65
2022/10/20 11:31:23;;;;;;;9.43;8.80;;;;;;;;;;4995874;28;20029;-66
2022/10/20 11:33:56;;;;;;;12.30;11.27;;;;;;;;;;5000240;28;20045;-66
2022/10/20 11:36:24;;;;;;;11.98;11.07;;;;;;;;;;4995117;28;20041;-66
2022/10/20 11:38:53;;;;;;;12.02;11.23;;;;;;;;;;4999384;28;20026;-66
2022/10/20 11:41:32;;;;;;;13.18;12.20;;;;;;;;;;4997905;28;20041;-67
2022/10/20 11:44:29;;;;;;;10.80;10.10;;;;;;;;;;4994834;28;20415;-67
2022/10/20 11:47:41;;;;;;;12.18;11.38;;;;;;;;;;4992253;28;20242;-68
2022/10/20 11:50:10;;;;;;;11.73;10.93;;;;;;;;;;4977246;28;20419;-67
2022/10/20 11:53:08;;;;;;;10.57;9.88;;;;;;;;;;4996875;28;20542;-67
2022/10/20 11:56:02;;;;;;;12.07;11.18;;;;;;;;;;4994648;28;20045;-67
2022/10/20 11:58:47;;;;;;;13.02;12.00;;;;;;;;;;4996490;28;20121;-69
2022/10/20 12:01:55;;;;;;;12.43;11.52;;;;;;;;;;4996454;28;20095;-66
2022/10/20 12:04:38;;;;;;;12.82;11.93;;;;;;;;;;4996773;28;20483;-68
2022/10/20 12:07:26;;;;;;;13.27;12.27;;;;;;;;;;4997593;28;20145;-68
2022/10/20 12:10:06;;;;;;;11.73;10.60;;;;;;;;;;4997074;28;20033;-66
2022/10/20 12:12:45;;;;;;;11.63;10.70;;;;;;;;;;5001229;28;20460;-66
2022/10/20 12:15:20;;;;;;;11.65;10.75;;;;;;;;;;4998579;28;20045;-68
2022/10/20 12:17:46;;;;;;;11.32;10.60;;;;;;;;;;5012556;28;20026;-68
2022/10/20 12:20:21;;;;;;;12.18;11.07;;;;;;;;;;4996097;28;20033;-68
2022/10/20 12:22:52;;;;;;;11.95;11.15;;;;;;;;;;4995594;28;20112;-67
2022/10/20 12:25:23;;;;;;;12.85;11.85;;;;;;;;;;4995167;28;20125;-67
2022/10/20 12:28:23;;;;;;;12.48;11.57;;;;;;;;;;4997476;28;20369;-68
2022/10/20 12:31:03;;;;;;;11.25;10.15;;;;;;;;;;4997035;28;20515;-68
2022/10/20 12:33:53;;;;;;;11.25;10.52;;;;;;;;;;4998401;28;20535;-65
2022/10/20 12:36:18;;;;;;;11.77;10.63;;;;;;;;;;4996062;28;20037;-68
2022/10/20 12:38:47;;;;;;;11.45;10.65;;;;;;;;;;4995029;28;20097;-68
2022/10/20 12:41:27;;;;;;;9.23;8.63;;;;;;;;;;5003176;28;20034;-67
2022/10/20 12:43:57;;;;;;;9.80;9.13;;;;;;;;;;4996386;28;20041;-67
2022/10/20 12:46:30;;;;;;;9.38;8.68;;;;;;;;;;4998140;28;20120;-67
2022/10/20 12:49:00;;;;;;;11.30;10.50;;;;;;;;;;4994833;28;20029;-65
2022/10/20 12:51:40;;;;;;;9.52;8.93;;;;;;;;;;4993032;28;20066;-67
2022/10/20 12:54:18;;;;;;;11.95;11.05;;;;;;;;;;4993320;28;20022;-67
2022/10/20 12:56:44;;;;;;;11.02;10.23;;;;;;;;;;4993921;28;20487;-67
2022/10/20 12:59:29;;;;;;;10.38;9.68;;;;;;;;;;4997060;28;20030;-67
2022/10/20 13:02:07;;;;;;;12.63;11.73;;;;;;;;;;4997014;28;20034;-67
2022/10/20 13:04:55;;;;;;;12.57;11.68;;;;;;;;;;4999456;28;20038;-67
2022/10/20 13:07:45;;;;;;;12.45;11.27;;;;;;;;;;4998548;28;20037;-67
2022/10/20 13:10:25;;;;;;;11.63;10.82;;;;;;;;;;5000367;28;20053;-67
2022/10/20 13:13:11;;;;;;;11.93;11.13;;;;;;;;;;4998555;28;20109;-67
2022/10/20 13:15:42;;;;;;;12.10;11.30;;;;;;;;;;4990203;28;20550;-67
2022/10/20 13:18:10;;;;;;;9.73;9.02;;;;;;;;;;4996659;28;20058;-67
2022/10/20 13:20:53;;;;;;;12.00;10.93;;;;;;;;;;4997526;28;20045;-67
2022/10/20 13:23:40;;;;;;;9.93;9.07;;;;;;;;;;4996812;28;20034;-67
2022/10/20 13:26:29;;;;;;;9.98;9.27;;;;;;;;;;4997451;28;20038;-67
2022/10/20 13:28:57;;;;;;;9.55;8.85;;;;;;;;;;4996888;28;20286;-67
2022/10/20 13:31:31;;;;;;;10.45;9.65;;;;;;;;;;4997041;28;20054;-68
2022/10/20 13:34:17;;;;;;;10.10;9.40;;;;;;;;;;5013869;28;20018;-67
2022/10/20 13:37:13;;;;;;;10.43;9.63;;;;;;;;;;5000755;28;20712;-67
2022/10/20 13:39:38;;;;;;;12.18;9.95;;;;;;;;;;4999396;28;20037;-67
2022/10/20 13:42:40;;;;;;;10.50;9.63;;;;;;;;;;4999181;28;20041;-67
2022/10/20 13:45:43;;;;;;;9.93;9.23;;;;;;;;;;5027768;28;20030;-68
2022/10/20 13:48:23;;;;;;;9.27;8.57;;;;;;;;;;5000240;28;20111;-68
2022/10/20 13:50:57;;;;;;;11.00;10.00;;;;;;;;;;4993364;28;20033;-68
2022/10/20 13:53:40;;;;;;;10.50;9.75;;;;;;;;;;4999228;28;20049;-68
2022/10/20 13:56:14;;;;;;;9.60;8.90;;;;;;;;;;4998879;28;20042;-67
2022/10/20 13:58:41;;;;;;;11.68;10.43;;;;;;;;;;4998044;28;20029;-68
2022/10/20 14:01:21;;;;;;;10.25;9.50;;;;;;;;;;4997181;28;20042;-67
2022/10/20 14:03:47;;;;;;;;;;;;;;;;;;5001013;28;20030;-67
2022/10/20 14:06:37;;;;;;;9.88;9.18;;;;;;;;;;4997979;28;19924;-67
2022/10/20 14:09:15;;;;;;;11.73;10.73;;;;;;;;;;4995621;28;20350;-67
2022/10/20 14:11:41;;;;;;;9.40;8.70;;;;;;;;;;4992748;28;20094;-67
2022/10/20 14:14:12;;;;;;;9.30;8.63;;;;;;;;;;4993899;28;20123;-67
2022/10/20 14:16:38;;;;;;;10.07;9.35;;;;;;;;;;5001778;28;20236;-67
2022/10/20 14:19:05;;;;;;;10.88;10.07;;;;;;;;;;4995624;28;20030;-67
2022/10/20 14:21:42;;;;;;;14.77;11.43;;;;;;;;;;5000782;28;20034;-67
2022/10/20 14:24:15;;;;;;;10.68;9.77;;;;;;;;;;5000059;28;20278;-67
2022/10/20 14:26:42;;;;;;;10.10;9.40;;;;;;;;;;5000881;28;20551;-67
2022/10/20 14:29:11;;;;;;;10.55;9.75;;;;;;;;;;4995077;28;20050;-67
2022/10/20 14:31:37;;;;;;;10.60;9.85;;;;;;;;;;4994999;28;20042;-67
2022/10/20 14:34:02;;;;;;;11.80;10.77;;;;;;;;;;4998970;28;20141;-67
2022/10/20 14:36:29;;;;;;;11.10;10.30;;;;;;;;;;4998803;28;20328;-67
2022/10/20 14:38:57;;;;;;;11.13;10.43;;;;;;;;;;5000332;28;20436;-68
2022/10/20 14:41:31;;;;;;;11.05;10.25;;;;;;;;;;4995517;28;20042;-69
2022/10/20 14:44:07;;;;;;;11.65;10.65;;;;;;;;;;5000541;28;20353;-68
2022/10/20 14:46:39;;;;;;;12.65;11.27;;;;;;;;;;4998176;28;20374;-68
2022/10/20 14:49:23;;;;;;;10.65;9.85;;;;;;;;;;4997525;28;20030;-68
2022/10/20 14:51:57;;;;;;;11.85;10.88;;;;;;;;;;5027465;28;20031;-68
2022/10/20 14:54:30;;;;;;;13.30;12.05;;;;;;;;;;4995739;28;20776;-68
2022/10/20 14:57:19;;;;;;;11.85;10.75;;;;;;;;;;4999018;28;20475;-67